sensor_id;sensor_type;location;lat;lon;timestamp;P1;durP1;ratioP1;P2;durP2;ratioP2
12826;SDS011;66927;48.812;9.118;2023-04-08T00:01:48;11.23;;;10.03;;
12826;SDS011;66927;48.812;9.118;2023-04-08T00:04:14;11.43;;;10.23;;
12826;SDS011;66927;48.812;9.118;2023-04-08T00:06:39;11.87;;;10.67;;
12826;SDS011;66927;48.812;9.118;2023-04-08T00:09:05;11.50;;;10.40;;
12826;SDS011;66927;48.812;9.118;2023-04-08T00:11:32;12.47;;;10.43;;
12826;SDS011;66927;48.812;9.118;2023-04-08T00:13:59;10.90;;;9.80;;
12826;SDS011;66927;48.812;9.118;2023-04-08T00:16:26;12.40;;;9.80;;
12826;SDS011;66927;48.812;9.118;2023-04-08T00:18:55;11.10;;;9.60;;
12826;SDS011;66927;48.812;9.118;2023-04-08T00:21:21;10.83;;;9.73;;
12826;SDS011;66927;48.812;9.118;2023-04-08T00:23:47;10.03;;;9.03;;
12826;SDS011;66927;48.812;9.118;2023-04-08T00:26:13;10.30;;;9.23;;
12826;SDS011;66927;48.812;9.118;2023-04-08T00:28:39;10.37;;;9.37;;
12826;SDS011;66927;48.812;9.118;2023-04-08T00:31:06;10.43;;;9.43;;
12826;SDS011;66927;48.812;9.118;2023-04-08T00:33:32;10.30;;;9.00;;
12826;SDS011;66927;48.812;9.118;2023-04-08T00:35:58;10.63;;;9.53;;
12826;SDS011;66927;48.812;9.118;2023-04-08T00:38:23;10.57;;;9.50;;
12826;SDS011;66927;48.812;9.118;2023-04-08T00:40:49;9.60;;;8.70;;
12826;SDS011;66927;48.812;9.118;2023-04-08T00:43:15;10.83;;;9.10;;
12826;SDS011;66927;48.812;9.118;2023-04-08T00:45:41;9.83;;;8.83;;
12826;SDS011;66927;48.812;9.118;2023-04-08T00:48:06;10.27;;;9.27;;
12826;SDS011;66927;48.812;9.118;2023-04-08T00:50:32;9.37;;;8.43;;
12826;SDS011;66927;48.812;9.118;2023-04-08T00:52:57;9.83;;;8.93;;
12826;SDS011;66927;48.812;9.118;2023-04-08T00:55:23;10.50;;;8.53;;
12826;SDS011;66927;48.812;9.118;2023-04-08T00:57:49;9.93;;;9.03;;
12826;SDS011;66927;48.812;9.118;2023-04-08T01:00:15;12.03;;;10.43;;
12826;SDS011;66927;48.812;9.118;2023-04-08T01:02:44;10.77;;;9.67;;
12826;SDS011;66927;48.812;9.118;2023-04-08T01:08:04;10.50;;;9.40;;
12826;SDS011;66927;48.812;9.118;2023-04-08T01:10:33;9.83;;;8.83;;
12826;SDS011;66927;48.812;9.118;2023-04-08T01:13:05;9.80;;;8.90;;
12826;SDS011;66927;48.812;9.118;2023-04-08T01:15:34;9.77;;;8.77;;
12826;SDS011;66927;48.812;9.118;2023-04-08T01:18:04;9.93;;;8.97;;
12826;SDS011;66927;48.812;9.118;2023-04-08T01:20:32;10.60;;;9.50;;
12826;SDS011;66927;48.812;9.118;2023-04-08T01:25:32;10.07;;;9.00;;
12826;SDS011;66927;48.812;9.118;2023-04-08T01:28:00;11.10;;;10.00;;
12826;SDS011;66927;48.812;9.118;2023-04-08T01:30:37;10.67;;;9.57;;
12826;SDS011;66927;48.812;9.118;2023-04-08T01:33:04;12.60;;;10.83;;
12826;SDS011;66927;48.812;9.118;2023-04-08T01:35:31;12.27;;;10.77;;
12826;SDS011;66927;48.812;9.118;2023-04-08T01:37:58;11.20;;;10.10;;
12826;SDS011;66927;48.812;9.118;2023-04-08T01:40:25;11.37;;;10.23;;
12826;SDS011;66927;48.812;9.118;2023-04-08T01:42:52;11.40;;;10.20;;
12826;SDS011;66927;48.812;9.118;2023-04-08T01:45:21;11.47;;;10.27;;
12826;SDS011;66927;48.812;9.118;2023-04-08T01:47:49;11.20;;;10.03;;
12826;SDS011;66927;48.812;9.118;2023-04-08T01:50:16;10.87;;;9.77;;
12826;SDS011;66927;48.812;9.118;2023-04-08T01:52:44;11.30;;;10.10;;
12826;SDS011;66927;48.812;9.118;2023-04-08T01:55:11;11.07;;;9.57;;
12826;SDS011;66927;48.812;9.118;2023-04-08T01:57:37;11.00;;;9.90;;
12826;SDS011;66927;48.812;9.118;2023-04-08T02:00:08;10.83;;;9.40;;
12826;SDS011;66927;48.812;9.118;2023-04-08T02:02:36;12.17;;;10.90;;
12826;SDS011;66927;48.812;9.118;2023-04-08T02:05:03;11.70;;;10.60;;
12826;SDS011;66927;48.812;9.118;2023-04-08T02:07:29;12.77;;;10.77;;
12826;SDS011;66927;48.812;9.118;2023-04-08T02:09:57;11.47;;;10.27;;
12826;SDS011;66927;48.812;9.118;2023-04-08T02:12:23;11.60;;;10.50;;
12826;SDS011;66927;48.812;9.118;2023-04-08T02:14:49;12.27;;;10.97;;
12826;SDS011;66927;48.812;9.118;2023-04-08T02:20:07;12.90;;;11.47;;
12826;SDS011;66927;48.812;9.118;2023-04-08T02:25:23;11.87;;;10.67;;
12826;SDS011;66927;48.812;9.118;2023-04-08T02:27:50;13.17;;;11.73;;
12826;SDS011;66927;48.812;9.118;2023-04-08T02:30:17;13.00;;;11.70;;
12826;SDS011;66927;48.812;9.118;2023-04-08T02:32:44;15.70;;;12.13;;
12826;SDS011;66927;48.812;9.118;2023-04-08T02:35:11;12.73;;;11.27;;
12826;SDS011;66927;48.812;9.118;2023-04-08T02:37:38;15.27;;;11.70;;
12826;SDS011;66927;48.812;9.118;2023-04-08T02:40:20;14.07;;;11.70;;
12826;SDS011;66927;48.812;9.118;2023-04-08T02:42:52;12.37;;;11.07;;
12826;SDS011;66927;48.812;9.118;2023-04-08T02:45:18;12.90;;;10.63;;
12826;SDS011;66927;48.812;9.118;2023-04-08T02:47:44;12.07;;;10.77;;
12826;SDS011;66927;48.812;9.118;2023-04-08T02:50:10;12.93;;;11.33;;
12826;SDS011;66927;48.812;9.118;2023-04-08T02:52:36;13.50;;;11.20;;
12826;SDS011;66927;48.812;9.118;2023-04-08T02:55:02;13.47;;;11.27;;
12826;SDS011;66927;48.812;9.118;2023-04-08T02:57:30;14.13;;;11.73;;
12826;SDS011;66927;48.812;9.118;2023-04-08T02:59:56;12.77;;;11.47;;
12826;SDS011;66927;48.812;9.118;2023-04-08T03:02:22;14.33;;;12.33;;
12826;SDS011;66927;48.812;9.118;2023-04-08T03:04:48;13.50;;;11.87;;
12826;SDS011;66927;48.812;9.118;2023-04-08T03:07:13;13.13;;;11.00;;
12826;SDS011;66927;48.812;9.118;2023-04-08T03:09:39;15.00;;;11.93;;
12826;SDS011;66927;48.812;9.118;2023-04-08T03:12:06;14.20;;;11.50;;
12826;SDS011;66927;48.812;9.118;2023-04-08T03:14:31;15.07;;;12.30;;
12826;SDS011;66927;48.812;9.118;2023-04-08T03:16:58;14.97;;;12.50;;
12826;SDS011;66927;48.812;9.118;2023-04-08T03:19:24;16.63;;;12.37;;
12826;SDS011;66927;48.812;9.118;2023-04-08T03:21:50;14.33;;;11.50;;
12826;SDS011;66927;48.812;9.118;2023-04-08T03:24:15;16.57;;;13.13;;
12826;SDS011;66927;48.812;9.118;2023-04-08T03:26:41;13.27;;;11.87;;
12826;SDS011;66927;48.812;9.118;2023-04-08T03:29:07;16.17;;;12.43;;
12826;SDS011;66927;48.812;9.118;2023-04-08T03:31:32;15.30;;;12.40;;
12826;SDS011;66927;48.812;9.118;2023-04-08T03:33:58;15.77;;;12.60;;
12826;SDS011;66927;48.812;9.118;2023-04-08T03:36:23;14.63;;;11.73;;
12826;SDS011;66927;48.812;9.118;2023-04-08T03:38:50;14.17;;;11.57;;
12826;SDS011;66927;48.812;9.118;2023-04-08T03:41:16;13.77;;;12.07;;
12826;SDS011;66927;48.812;9.118;2023-04-08T03:43:42;18.00;;;12.37;;
12826;SDS011;66927;48.812;9.118;2023-04-08T03:46:08;14.33;;;12.17;;
12826;SDS011;66927;48.812;9.118;2023-04-08T03:48:34;15.33;;;13.00;;
12826;SDS011;66927;48.812;9.118;2023-04-08T03:50:59;16.10;;;13.73;;
12826;SDS011;66927;48.812;9.118;2023-04-08T03:53:25;17.63;;;14.03;;
12826;SDS011;66927;48.812;9.118;2023-04-08T03:55:53;17.13;;;13.40;;
12826;SDS011;66927;48.812;9.118;2023-04-08T03:58:19;17.17;;;13.13;;
12826;SDS011;66927;48.812;9.118;2023-04-08T04:00:45;17.50;;;13.47;;
12826;SDS011;66927;48.812;9.118;2023-04-08T04:03:11;15.50;;;12.43;;
12826;SDS011;66927;48.812;9.118;2023-04-08T04:05:37;15.87;;;12.90;;
12826;SDS011;66927;48.812;9.118;2023-04-08T04:08:03;17.27;;;12.87;;
12826;SDS011;66927;48.812;9.118;2023-04-08T04:10:29;16.37;;;12.53;;
12826;SDS011;66927;48.812;9.118;2023-04-08T04:12:55;14.20;;;11.77;;
12826;SDS011;66927;48.812;9.118;2023-04-08T04:15:20;15.03;;;12.07;;
12826;SDS011;66927;48.812;9.118;2023-04-08T04:17:46;17.17;;;12.33;;
12826;SDS011;66927;48.812;9.118;2023-04-08T04:20:14;15.67;;;13.00;;
12826;SDS011;66927;48.812;9.118;2023-04-08T04:22:40;14.87;;;12.90;;
12826;SDS011;66927;48.812;9.118;2023-04-08T04:25:06;18.23;;;13.33;;
12826;SDS011;66927;48.812;9.118;2023-04-08T04:27:32;18.40;;;13.33;;
12826;SDS011;66927;48.812;9.118;2023-04-08T04:29:59;15.53;;;12.27;;
12826;SDS011;66927;48.812;9.118;2023-04-08T04:32:25;15.03;;;12.47;;
12826;SDS011;66927;48.812;9.118;2023-04-08T04:34:50;17.33;;;13.53;;
12826;SDS011;66927;48.812;9.118;2023-04-08T04:37:16;16.83;;;13.33;;
12826;SDS011;66927;48.812;9.118;2023-04-08T04:39:42;16.77;;;13.17;;
12826;SDS011;66927;48.812;9.118;2023-04-08T04:42:08;16.73;;;12.90;;
12826;SDS011;66927;48.812;9.118;2023-04-08T04:44:33;14.97;;;12.10;;
12826;SDS011;66927;48.812;9.118;2023-04-08T04:46:59;15.20;;;12.57;;
12826;SDS011;66927;48.812;9.118;2023-04-08T04:49:25;16.60;;;12.33;;
12826;SDS011;66927;48.812;9.118;2023-04-08T04:51:50;16.17;;;13.60;;
12826;SDS011;66927;48.812;9.118;2023-04-08T04:54:16;14.37;;;12.50;;
12826;SDS011;66927;48.812;9.118;2023-04-08T04:56:43;16.27;;;13.37;;
12826;SDS011;66927;48.812;9.118;2023-04-08T04:59:08;15.43;;;12.53;;
12826;SDS011;66927;48.812;9.118;2023-04-08T05:01:34;15.37;;;12.13;;
12826;SDS011;66927;48.812;9.118;2023-04-08T05:04:00;17.10;;;13.70;;
12826;SDS011;66927;48.812;9.118;2023-04-08T05:06:25;16.47;;;13.97;;
12826;SDS011;66927;48.812;9.118;2023-04-08T05:08:51;17.50;;;14.13;;
12826;SDS011;66927;48.812;9.118;2023-04-08T05:11:17;16.10;;;13.87;;
12826;SDS011;66927;48.812;9.118;2023-04-08T05:13:43;16.00;;;13.87;;
12826;SDS011;66927;48.812;9.118;2023-04-08T05:16:09;16.80;;;13.70;;
12826;SDS011;66927;48.812;9.118;2023-04-08T05:18:35;17.10;;;14.70;;
12826;SDS011;66927;48.812;9.118;2023-04-08T05:21:01;16.47;;;13.57;;
12826;SDS011;66927;48.812;9.118;2023-04-08T05:23:27;17.67;;;14.77;;
12826;SDS011;66927;48.812;9.118;2023-04-08T05:25:52;16.63;;;14.30;;
12826;SDS011;66927;48.812;9.118;2023-04-08T05:28:18;16.83;;;13.93;;
12826;SDS011;66927;48.812;9.118;2023-04-08T05:30:50;17.57;;;13.93;;
12826;SDS011;66927;48.812;9.118;2023-04-08T05:33:17;17.67;;;15.23;;
12826;SDS011;66927;48.812;9.118;2023-04-08T05:35:43;18.63;;;14.73;;
12826;SDS011;66927;48.812;9.118;2023-04-08T05:38:09;16.50;;;13.97;;
12826;SDS011;66927;48.812;9.118;2023-04-08T05:40:35;19.00;;;14.20;;
12826;SDS011;66927;48.812;9.118;2023-04-08T05:43:01;17.07;;;14.73;;
12826;SDS011;66927;48.812;9.118;2023-04-08T05:45:26;17.47;;;14.77;;
12826;SDS011;66927;48.812;9.118;2023-04-08T05:47:52;16.67;;;14.30;;
12826;SDS011;66927;48.812;9.118;2023-04-08T05:50:18;16.70;;;13.80;;
12826;SDS011;66927;48.812;9.118;2023-04-08T05:52:44;16.90;;;14.23;;
12826;SDS011;66927;48.812;9.118;2023-04-08T05:55:10;16.40;;;14.17;;
12826;SDS011;66927;48.812;9.118;2023-04-08T05:57:36;17.50;;;13.93;;
12826;SDS011;66927;48.812;9.118;2023-04-08T06:00:03;17.37;;;14.63;;
12826;SDS011;66927;48.812;9.118;2023-04-08T06:02:30;18.37;;;14.87;;
12826;SDS011;66927;48.812;9.118;2023-04-08T06:04:56;17.87;;;14.47;;
12826;SDS011;66927;48.812;9.118;2023-04-08T06:07:21;17.40;;;15.00;;
12826;SDS011;66927;48.812;9.118;2023-04-08T06:09:47;20.20;;;16.77;;
12826;SDS011;66927;48.812;9.118;2023-04-08T06:12:12;18.97;;;15.10;;
12826;SDS011;66927;48.812;9.118;2023-04-08T06:14:38;17.53;;;14.93;;
12826;SDS011;66927;48.812;9.118;2023-04-08T06:17:04;16.67;;;13.77;;
12826;SDS011;66927;48.812;9.118;2023-04-08T06:19:30;17.47;;;14.90;;
12826;SDS011;66927;48.812;9.118;2023-04-08T06:21:55;21.33;;;14.87;;
12826;SDS011;66927;48.812;9.118;2023-04-08T06:24:23;18.70;;;14.20;;
12826;SDS011;66927;48.812;9.118;2023-04-08T06:26:50;15.77;;;14.03;;
12826;SDS011;66927;48.812;9.118;2023-04-08T06:29:17;15.93;;;12.97;;
12826;SDS011;66927;48.812;9.118;2023-04-08T06:31:42;18.00;;;14.93;;
12826;SDS011;66927;48.812;9.118;2023-04-08T06:34:08;17.27;;;13.90;;
12826;SDS011;66927;48.812;9.118;2023-04-08T06:36:33;16.23;;;13.33;;
12826;SDS011;66927;48.812;9.118;2023-04-08T06:38:59;15.53;;;13.23;;
12826;SDS011;66927;48.812;9.118;2023-04-08T06:41:25;15.80;;;13.37;;
12826;SDS011;66927;48.812;9.118;2023-04-08T06:43:50;18.87;;;14.20;;
12826;SDS011;66927;48.812;9.118;2023-04-08T06:46:16;18.57;;;13.70;;
12826;SDS011;66927;48.812;9.118;2023-04-08T06:48:41;17.33;;;14.17;;
12826;SDS011;66927;48.812;9.118;2023-04-08T06:51:07;19.43;;;15.60;;
12826;SDS011;66927;48.812;9.118;2023-04-08T06:53:33;22.07;;;17.63;;
12826;SDS011;66927;48.812;9.118;2023-04-08T06:55:58;17.17;;;14.50;;
12826;SDS011;66927;48.812;9.118;2023-04-08T06:58:24;16.60;;;13.37;;
12826;SDS011;66927;48.812;9.118;2023-04-08T07:00:52;16.87;;;13.90;;
12826;SDS011;66927;48.812;9.118;2023-04-08T07:03:19;15.13;;;13.30;;
12826;SDS011;66927;48.812;9.118;2023-04-08T07:05:45;17.57;;;13.73;;
12826;SDS011;66927;48.812;9.118;2023-04-08T07:08:11;20.17;;;14.70;;
12826;SDS011;66927;48.812;9.118;2023-04-08T07:10:37;19.53;;;15.70;;
12826;SDS011;66927;48.812;9.118;2023-04-08T07:13:03;16.57;;;14.83;;
12826;SDS011;66927;48.812;9.118;2023-04-08T07:15:29;20.53;;;16.10;;
12826;SDS011;66927;48.812;9.118;2023-04-08T07:17:54;22.33;;;18.17;;
12826;SDS011;66927;48.812;9.118;2023-04-08T07:20:21;16.80;;;14.27;;
12826;SDS011;66927;48.812;9.118;2023-04-08T07:22:47;16.40;;;14.17;;
12826;SDS011;66927;48.812;9.118;2023-04-08T07:25:15;15.43;;;13.10;;
12826;SDS011;66927;48.812;9.118;2023-04-08T07:27:41;18.37;;;13.23;;
12826;SDS011;66927;48.812;9.118;2023-04-08T07:30:06;16.07;;;13.03;;
12826;SDS011;66927;48.812;9.118;2023-04-08T07:32:33;17.03;;;12.20;;
12826;SDS011;66927;48.812;9.118;2023-04-08T07:34:59;20.27;;;16.60;;
12826;SDS011;66927;48.812;9.118;2023-04-08T07:37:25;15.67;;;13.37;;
12826;SDS011;66927;48.812;9.118;2023-04-08T07:39:51;14.40;;;12.90;;
12826;SDS011;66927;48.812;9.118;2023-04-08T07:42:17;14.37;;;12.87;;
12826;SDS011;66927;48.812;9.118;2023-04-08T07:44:43;15.07;;;12.90;;
12826;SDS011;66927;48.812;9.118;2023-04-08T07:47:09;15.60;;;12.37;;
12826;SDS011;66927;48.812;9.118;2023-04-08T07:49:35;14.87;;;12.27;;
12826;SDS011;66927;48.812;9.118;2023-04-08T07:52:01;13.17;;;11.77;;
12826;SDS011;66927;48.812;9.118;2023-04-08T07:54:27;13.00;;;11.67;;
12826;SDS011;66927;48.812;9.118;2023-04-08T07:56:54;12.80;;;10.83;;
12826;SDS011;66927;48.812;9.118;2023-04-08T07:59:21;14.97;;;12.10;;
12826;SDS011;66927;48.812;9.118;2023-04-08T08:01:46;12.70;;;10.77;;
12826;SDS011;66927;48.812;9.118;2023-04-08T08:04:12;12.27;;;11.07;;
12826;SDS011;66927;48.812;9.118;2023-04-08T08:06:37;11.60;;;10.40;;
12826;SDS011;66927;48.812;9.118;2023-04-08T08:09:03;11.73;;;10.53;;
12826;SDS011;66927;48.812;9.118;2023-04-08T08:11:29;11.87;;;10.33;;
12826;SDS011;66927;48.812;9.118;2023-04-08T08:13:55;15.73;;;14.13;;
12826;SDS011;66927;48.812;9.118;2023-04-08T08:16:21;12.03;;;10.60;;
12826;SDS011;66927;48.812;9.118;2023-04-08T08:18:46;11.37;;;10.13;;
12826;SDS011;66927;48.812;9.118;2023-04-08T08:21:12;12.43;;;11.13;;
12826;SDS011;66927;48.812;9.118;2023-04-08T08:23:38;11.40;;;10.23;;
12826;SDS011;66927;48.812;9.118;2023-04-08T08:26:05;11.30;;;10.13;;
12826;SDS011;66927;48.812;9.118;2023-04-08T08:28:34;11.53;;;10.33;;
12826;SDS011;66927;48.812;9.118;2023-04-08T08:31:00;14.70;;;11.97;;
12826;SDS011;66927;48.812;9.118;2023-04-08T08:33:26;11.93;;;10.73;;
12826;SDS011;66927;48.812;9.118;2023-04-08T08:35:52;12.10;;;10.80;;
12826;SDS011;66927;48.812;9.118;2023-04-08T08:38:18;12.10;;;10.90;;
12826;SDS011;66927;48.812;9.118;2023-04-08T08:40:44;12.23;;;10.93;;
12826;SDS011;66927;48.812;9.118;2023-04-08T08:43:10;11.33;;;10.20;;
12826;SDS011;66927;48.812;9.118;2023-04-08T08:45:39;11.03;;;10.03;;
12826;SDS011;66927;48.812;9.118;2023-04-08T08:48:06;11.10;;;10.00;;
12826;SDS011;66927;48.812;9.118;2023-04-08T08:50:35;12.07;;;10.93;;
12826;SDS011;66927;48.812;9.118;2023-04-08T08:53:01;12.80;;;11.50;;
12826;SDS011;66927;48.812;9.118;2023-04-08T08:55:29;11.60;;;10.50;;
12826;SDS011;66927;48.812;9.118;2023-04-08T08:57:56;12.40;;;10.40;;
12826;SDS011;66927;48.812;9.118;2023-04-08T09:00:32;12.37;;;10.30;;
12826;SDS011;66927;48.812;9.118;2023-04-08T09:03:44;10.37;;;9.37;;
12826;SDS011;66927;48.812;9.118;2023-04-08T09:05:52;10.73;;;9.63;;
12826;SDS011;66927;48.812;9.118;2023-04-08T09:10:53;10.40;;;9.40;;
12826;SDS011;66927;48.812;9.118;2023-04-08T09:13:23;10.53;;;9.53;;
12826;SDS011;66927;48.812;9.118;2023-04-08T09:16:01;10.87;;;9.77;;
12826;SDS011;66927;48.812;9.118;2023-04-08T09:18:29;10.70;;;9.70;;
12826;SDS011;66927;48.812;9.118;2023-04-08T09:20:55;10.43;;;9.53;;
12826;SDS011;66927;48.812;9.118;2023-04-08T09:23:21;11.23;;;10.23;;
12826;SDS011;66927;48.812;9.118;2023-04-08T09:25:46;11.00;;;9.90;;
12826;SDS011;66927;48.812;9.118;2023-04-08T09:28:18;11.93;;;10.80;;
12826;SDS011;66927;48.812;9.118;2023-04-08T09:30:47;11.00;;;10.00;;
12826;SDS011;66927;48.812;9.118;2023-04-08T09:33:14;12.27;;;11.10;;
12826;SDS011;66927;48.812;9.118;2023-04-08T09:35:40;11.30;;;10.30;;
12826;SDS011;66927;48.812;9.118;2023-04-08T09:38:07;10.33;;;9.43;;
12826;SDS011;66927;48.812;9.118;2023-04-08T09:40:33;11.20;;;10.10;;
12826;SDS011;66927;48.812;9.118;2023-04-08T09:43:01;10.87;;;9.87;;
12826;SDS011;66927;48.812;9.118;2023-04-08T09:45:30;11.03;;;10.03;;
12826;SDS011;66927;48.812;9.118;2023-04-08T09:48:08;10.70;;;9.60;;
12826;SDS011;66927;48.812;9.118;2023-04-08T09:50:39;10.40;;;9.40;;
12826;SDS011;66927;48.812;9.118;2023-04-08T09:53:16;10.93;;;9.93;;
12826;SDS011;66927;48.812;9.118;2023-04-08T09:55:45;10.80;;;9.70;;
12826;SDS011;66927;48.812;9.118;2023-04-08T09:58:28;10.20;;;9.30;;
12826;SDS011;66927;48.812;9.118;2023-04-08T10:01:02;10.87;;;9.87;;
12826;SDS011;66927;48.812;9.118;2023-04-08T10:03:39;11.13;;;10.13;;
12826;SDS011;66927;48.812;9.118;2023-04-08T10:06:08;9.70;;;8.80;;
12826;SDS011;66927;48.812;9.118;2023-04-08T10:08:35;10.63;;;9.53;;
12826;SDS011;66927;48.812;9.118;2023-04-08T10:11:01;11.37;;;9.13;;
12826;SDS011;66927;48.812;9.118;2023-04-08T10:13:27;11.73;;;9.47;;
12826;SDS011;66927;48.812;9.118;2023-04-08T10:16:39;9.30;;;8.37;;
12826;SDS011;66927;48.812;9.118;2023-04-08T10:18:42;9.43;;;8.53;;
12826;SDS011;66927;48.812;9.118;2023-04-08T10:23:56;10.10;;;9.03;;
12826;SDS011;66927;48.812;9.118;2023-04-08T10:26:29;10.63;;;9.57;;
12826;SDS011;66927;48.812;9.118;2023-04-08T10:31:45;9.50;;;8.60;;
12826;SDS011;66927;48.812;9.118;2023-04-08T10:34:22;9.97;;;9.07;;
12826;SDS011;66927;48.812;9.118;2023-04-08T10:36:50;10.13;;;9.03;;
12826;SDS011;66927;48.812;9.118;2023-04-08T10:39:16;10.00;;;8.83;;
12826;SDS011;66927;48.812;9.118;2023-04-08T10:41:42;9.07;;;8.27;;
12826;SDS011;66927;48.812;9.118;2023-04-08T10:44:21;9.90;;;9.00;;
12826;SDS011;66927;48.812;9.118;2023-04-08T10:46:49;10.33;;;8.80;;
12826;SDS011;66927;48.812;9.118;2023-04-08T10:49:16;11.57;;;9.20;;
12826;SDS011;66927;48.812;9.118;2023-04-08T10:51:42;10.53;;;9.53;;
12826;SDS011;66927;48.812;9.118;2023-04-08T10:54:12;10.87;;;9.77;;
12826;SDS011;66927;48.812;9.118;2023-04-08T10:56:47;10.40;;;9.40;;
12826;SDS011;66927;48.812;9.118;2023-04-08T10:59:14;10.00;;;9.03;;
12826;SDS011;66927;48.812;9.118;2023-04-08T11:01:42;10.07;;;9.07;;
12826;SDS011;66927;48.812;9.118;2023-04-08T11:04:15;10.07;;;8.97;;
12826;SDS011;66927;48.812;9.118;2023-04-08T11:06:43;11.33;;;10.20;;
12826;SDS011;66927;48.812;9.118;2023-04-08T11:09:11;12.73;;;9.20;;
12826;SDS011;66927;48.812;9.118;2023-04-08T11:11:39;9.83;;;8.87;;
12826;SDS011;66927;48.812;9.118;2023-04-08T11:14:06;10.90;;;9.60;;
12826;SDS011;66927;48.812;9.118;2023-04-08T11:16:32;17.97;;;13.10;;
12826;SDS011;66927;48.812;9.118;2023-04-08T11:19:00;11.67;;;9.83;;
12826;SDS011;66927;48.812;9.118;2023-04-08T11:21:27;10.10;;;9.10;;
12826;SDS011;66927;48.812;9.118;2023-04-08T11:23:53;10.93;;;9.63;;
12826;SDS011;66927;48.812;9.118;2023-04-08T11:26:19;10.00;;;9.00;;
12826;SDS011;66927;48.812;9.118;2023-04-08T11:28:45;10.50;;;9.17;;
12826;SDS011;66927;48.812;9.118;2023-04-08T11:31:15;11.37;;;9.03;;
12826;SDS011;66927;48.812;9.118;2023-04-08T11:33:44;9.80;;;8.83;;
12826;SDS011;66927;48.812;9.118;2023-04-08T11:36:12;10.27;;;9.27;;
12826;SDS011;66927;48.812;9.118;2023-04-08T11:38:39;10.70;;;9.70;;
12826;SDS011;66927;48.812;9.118;2023-04-08T11:41:08;10.33;;;8.97;;
12826;SDS011;66927;48.812;9.118;2023-04-08T11:43:35;9.53;;;8.53;;
12826;SDS011;66927;48.812;9.118;2023-04-08T11:46:07;10.93;;;9.87;;
12826;SDS011;66927;48.812;9.118;2023-04-08T11:48:37;9.73;;;8.83;;
12826;SDS011;66927;48.812;9.118;2023-04-08T11:51:06;10.57;;;9.53;;
12826;SDS011;66927;48.812;9.118;2023-04-08T11:53:36;10.77;;;9.70;;
12826;SDS011;66927;48.812;9.118;2023-04-08T11:56:17;10.23;;;9.27;;
12826;SDS011;66927;48.812;9.118;2023-04-08T11:58:43;10.07;;;9.03;;
12826;SDS011;66927;48.812;9.118;2023-04-08T12:01:08;11.23;;;8.23;;
12826;SDS011;66927;48.812;9.118;2023-04-08T12:03:34;12.67;;;10.13;;
12826;SDS011;66927;48.812;9.118;2023-04-08T12:06:00;9.90;;;8.77;;
12826;SDS011;66927;48.812;9.118;2023-04-08T12:08:25;10.63;;;9.57;;
12826;SDS011;66927;48.812;9.118;2023-04-08T12:10:52;13.57;;;9.93;;
12826;SDS011;66927;48.812;9.118;2023-04-08T12:13:17;11.07;;;9.77;;
12826;SDS011;66927;48.812;9.118;2023-04-08T12:15:43;12.17;;;9.87;;
12826;SDS011;66927;48.812;9.118;2023-04-08T12:18:09;10.63;;;9.43;;
12826;SDS011;66927;48.812;9.118;2023-04-08T12:20:35;9.97;;;8.67;;
12826;SDS011;66927;48.812;9.118;2023-04-08T12:23:00;9.87;;;8.90;;
12826;SDS011;66927;48.812;9.118;2023-04-08T12:25:26;11.20;;;9.47;;
12826;SDS011;66927;48.812;9.118;2023-04-08T12:27:51;10.13;;;9.13;;
12826;SDS011;66927;48.812;9.118;2023-04-08T12:30:17;10.77;;;9.03;;
12826;SDS011;66927;48.812;9.118;2023-04-08T12:32:43;10.60;;;9.60;;
12826;SDS011;66927;48.812;9.118;2023-04-08T12:35:10;10.33;;;9.27;;
12826;SDS011;66927;48.812;9.118;2023-04-08T12:37:35;9.67;;;8.70;;
12826;SDS011;66927;48.812;9.118;2023-04-08T12:40:01;12.10;;;9.00;;
12826;SDS011;66927;48.812;9.118;2023-04-08T12:42:27;11.53;;;8.27;;
12826;SDS011;66927;48.812;9.118;2023-04-08T12:44:52;10.10;;;9.10;;
12826;SDS011;66927;48.812;9.118;2023-04-08T12:47:18;10.83;;;9.67;;
12826;SDS011;66927;48.812;9.118;2023-04-08T12:49:44;14.50;;;10.87;;
12826;SDS011;66927;48.812;9.118;2023-04-08T12:52:09;10.77;;;9.77;;
12826;SDS011;66927;48.812;9.118;2023-04-08T12:54:35;11.33;;;9.57;;
12826;SDS011;66927;48.812;9.118;2023-04-08T12:57:01;9.80;;;8.80;;
12826;SDS011;66927;48.812;9.118;2023-04-08T12:59:26;11.27;;;9.70;;
12826;SDS011;66927;48.812;9.118;2023-04-08T13:01:52;9.60;;;8.70;;
12826;SDS011;66927;48.812;9.118;2023-04-08T13:04:18;13.70;;;10.03;;
12826;SDS011;66927;48.812;9.118;2023-04-08T13:06:43;11.77;;;9.50;;
12826;SDS011;66927;48.812;9.118;2023-04-08T13:09:10;11.17;;;9.50;;
12826;SDS011;66927;48.812;9.118;2023-04-08T13:11:36;9.73;;;8.83;;
12826;SDS011;66927;48.812;9.118;2023-04-08T13:14:01;11.33;;;8.60;;
12826;SDS011;66927;48.812;9.118;2023-04-08T13:16:27;11.67;;;9.37;;
12826;SDS011;66927;48.812;9.118;2023-04-08T13:18:53;12.83;;;9.20;;
12826;SDS011;66927;48.812;9.118;2023-04-08T13:21:19;12.07;;;9.73;;
12826;SDS011;66927;48.812;9.118;2023-04-08T13:23:45;10.70;;;9.10;;
12826;SDS011;66927;48.812;9.118;2023-04-08T13:26:11;10.07;;;9.10;;
12826;SDS011;66927;48.812;9.118;2023-04-08T13:28:37;10.70;;;9.60;;
12826;SDS011;66927;48.812;9.118;2023-04-08T13:31:02;10.20;;;9.20;;
12826;SDS011;66927;48.812;9.118;2023-04-08T13:33:28;9.90;;;8.90;;
12826;SDS011;66927;48.812;9.118;2023-04-08T13:35:55;11.50;;;9.53;;
12826;SDS011;66927;48.812;9.118;2023-04-08T13:38:20;10.33;;;8.77;;
12826;SDS011;66927;48.812;9.118;2023-04-08T13:40:46;10.00;;;9.00;;
12826;SDS011;66927;48.812;9.118;2023-04-08T13:43:12;10.30;;;8.33;;
12826;SDS011;66927;48.812;9.118;2023-04-08T13:45:40;9.67;;;8.60;;
12826;SDS011;66927;48.812;9.118;2023-04-08T13:48:06;9.63;;;8.67;;
12826;SDS011;66927;48.812;9.118;2023-04-08T13:50:31;9.53;;;8.63;;
12826;SDS011;66927;48.812;9.118;2023-04-08T13:52:58;10.07;;;8.83;;
12826;SDS011;66927;48.812;9.118;2023-04-08T13:55:24;10.33;;;9.23;;
12826;SDS011;66927;48.812;9.118;2023-04-08T13:57:50;9.93;;;8.83;;
12826;SDS011;66927;48.812;9.118;2023-04-08T14:00:16;9.20;;;8.17;;
12826;SDS011;66927;48.812;9.118;2023-04-08T14:02:41;12.60;;;11.33;;
12826;SDS011;66927;48.812;9.118;2023-04-08T14:05:07;10.57;;;8.83;;
12826;SDS011;66927;48.812;9.118;2023-04-08T14:07:33;10.93;;;9.10;;
12826;SDS011;66927;48.812;9.118;2023-04-08T14:09:58;8.87;;;8.07;;
12826;SDS011;66927;48.812;9.118;2023-04-08T14:12:24;9.87;;;8.90;;
12826;SDS011;66927;48.812;9.118;2023-04-08T14:14:50;9.60;;;8.60;;
12826;SDS011;66927;48.812;9.118;2023-04-08T14:17:15;10.73;;;9.17;;
12826;SDS011;66927;48.812;9.118;2023-04-08T14:19:41;9.43;;;8.53;;
12826;SDS011;66927;48.812;9.118;2023-04-08T14:22:06;10.00;;;8.87;;
12826;SDS011;66927;48.812;9.118;2023-04-08T14:24:32;9.97;;;9.07;;
12826;SDS011;66927;48.812;9.118;2023-04-08T14:26:58;10.17;;;9.03;;
12826;SDS011;66927;48.812;9.118;2023-04-08T14:29:24;9.00;;;8.10;;
12826;SDS011;66927;48.812;9.118;2023-04-08T14:31:49;16.17;;;13.20;;
12826;SDS011;66927;48.812;9.118;2023-04-08T14:34:15;10.20;;;8.43;;
12826;SDS011;66927;48.812;9.118;2023-04-08T14:36:41;10.10;;;8.60;;
12826;SDS011;66927;48.812;9.118;2023-04-08T14:39:06;10.27;;;8.63;;
12826;SDS011;66927;48.812;9.118;2023-04-08T14:41:32;9.70;;;8.80;;
12826;SDS011;66927;48.812;9.118;2023-04-08T14:43:58;10.47;;;9.37;;
12826;SDS011;66927;48.812;9.118;2023-04-08T14:46:24;9.27;;;8.47;;